Time;durP1;ratioP1;P1;durP2;ratioP2;P2;SDS_P1;SDS_P2;PMS_P1;PMS_P2;Temp;Humidity;BMP_temperature;BMP_pressure;BME280_temperature;BME280_humidity;BME280_pressure;Samples;Min_cycle;Max_cycle;Signal;HPM_P1;HPM_P2
2022/01/03 00:02:24;;;;;;;;;6.25;4.00;;;;;17.00;68.29;101567.72;5063021;28;61812;-76
2022/01/03 00:04:50;;;;;;;;;7.25;2.00;;;;;16.96;68.32;101572.00;5063259;28;61782;-76
2022/01/03 00:07:16;;;;;;;;;3.50;3.50;;;;;16.95;68.20;101572.88;5060766;28;64942;-76
2022/01/03 00:09:42;;;;;;;;;2.00;2.00;;;;;16.96;68.24;101565.81;5078176;28;61852;-76
2022/01/03 00:12:08;;;;;;;;;4.00;2.25;;;;;16.99;68.17;101560.63;5062797;28;61786;-76
2022/01/03 00:14:34;;;;;;;;;4.25;1.75;;;;;16.95;68.20;101564.91;5063266;28;62132;-76
2022/01/03 00:17:00;;;;;;;;;2.25;1.75;;;;;16.93;68.33;101568.38;5062389;28;62710;-76
2022/01/03 00:19:25;;;;;;;;;4.25;2.25;;;;;16.94;68.21;101572.81;5062704;28;62130;-76
2022/01/03 00:21:54;;;;;;;;;2.00;0.25;;;;;16.94;68.30;101576.34;5063080;28;61890;-76
2022/01/03 00:24:25;;;;;;;;;4.75;1.25;;;;;16.86;68.29;101564.66;5062474;28;61779;-76
2022/01/03 00:26:59;;;;;;;;;2.75;1.75;;;;;16.81;68.52;101579.50;5077377;28;63910;-76
2022/01/03 00:29:27;;;;;;;;;1.00;1.00;;;;;16.75;68.81;101581.91;5062664;28;62144;-75
2022/01/03 00:31:57;;;;;;;;;2.50;0.75;;;;;16.73;68.58;101578.31;5063113;28;61880;-76
2022/01/03 00:34:27;;;;;;;;;5.75;0.50;;;;;16.81;68.49;101581.25;5060061;28;61889;-76
2022/01/03 00:36:55;;;;;;;;;2.75;1.75;;;;;16.88;68.42;101586.81;5060855;28;64191;-76
2022/01/03 00:39:21;;;;;;;;;4.25;1.00;;;;;16.86;68.45;101606.16;5061774;28;61888;-76
2022/01/03 00:41:48;;;;;;;;;8.50;1.00;;;;;16.72;68.77;101592.44;5061345;28;62547;-76
2022/01/03 00:44:14;;;;;;;;;5.50;1.50;;;;;16.82;68.79;101596.31;5062777;28;61953;-76
2022/01/03 00:46:41;;;;;;;;;2.00;2.00;;;;;16.79;68.46;101596.16;5061745;28;61898;-76
2022/01/03 00:49:06;;;;;;;;;2.75;1.75;;;;;16.70;68.88;101597.66;5062288;28;61932;-75
2022/01/03 00:51:33;;;;;;;;;2.25;2.25;;;;;16.73;68.99;101587.19;5062489;28;62006;-76
2022/01/03 00:53:59;;;;;;;;;4.75;2.00;;;;;16.71;68.88;101580.00;5062405;28;61853;-76
2022/01/03 00:56:29;;;;;;;;;9.25;3.00;;;;;16.76;68.72;101589.91;5060313;28;61995;-76
2022/01/03 00:59:04;;;;;;;;;4.75;2.00;;;;;16.73;68.88;101592.47;5062461;28;61896;-76
2022/01/03 01:01:30;;;;;;;;;3.50;1.50;;;;;16.73;69.19;101592.47;5062273;28;61924;-76
2022/01/03 01:03:57;;;;;;;;;3.25;1.50;;;;;16.70;69.15;101589.72;5062816;28;61880;-75
2022/01/03 01:06:25;;;;;;;;;3.25;1.00;;;;;16.75;68.99;101597.81;5060880;28;61832;-76
2022/01/03 01:08:56;;;;;;;;;2.75;2.50;;;;;16.74;69.05;101599.56;5062008;28;61947;-76
2022/01/03 01:11:28;;;;;;;;;6.00;2.00;;;;;16.75;68.78;101592.50;5061965;28;61868;-76
2022/01/03 01:13:54;;;;;;;;;1.25;1.25;;;;;16.81;68.96;101590.09;5062291;28;61890;-76
2022/01/03 01:16:20;;;;;;;;;5.00;2.00;;;;;16.81;68.97;101594.50;5061532;28;61845;-75
2022/01/03 01:18:46;;;;;;;;;6.25;3.50;;;;;16.82;68.79;101591.91;5061368;28;62072;-75
2022/01/03 01:21:11;;;;;;;;;1.00;0.75;;;;;16.79;69.00;101589.09;5061954;28;61983;-75
2022/01/03 01:23:40;;;;;;;;;5.00;2.00;;;;;16.81;68.93;101591.84;5061955;28;62160;-75
2022/01/03 01:28:50;;;;;;;;;3.00;2.50;;;;;16.87;68.75;101585.00;5061543;28;61802;-75
2022/01/03 01:31:20;;;;;;;;;4.50;2.00;;;;;16.91;68.62;101589.53;5060431;28;62030;-76
2022/01/03 01:33:46;;;;;;;;;1.50;1.00;;;;;16.86;68.73;101579.63;5061409;28;61697;-75
2022/01/03 01:36:14;;;;;;;;;6.50;2.50;;;;;16.81;68.91;101576.84;5061417;28;61949;-76
2022/01/03 01:38:42;;;;;;;;;4.00;2.00;;;;;16.81;68.91;101574.19;5061021;28;61772;-75
2022/01/03 01:41:09;;;;;;;;;4.25;1.00;;;;;16.82;69.02;101575.09;5061990;28;61905;-75
2022/01/03 01:43:39;;;;;;;;;5.00;3.25;;;;;16.73;69.02;101580.94;5061801;28;61861;-75
2022/01/03 01:46:11;;;;;;;;;9.25;2.75;;;;;16.68;69.14;101582.56;5061002;28;61836;-75
2022/01/03 01:48:38;;;;;;;;;7.75;2.25;;;;;16.67;69.41;101573.72;5061467;28;61889;-75
2022/01/03 01:51:06;;;;;;;;;4.25;1.00;;;;;16.60;69.59;101566.41;5077126;28;61886;-75
2022/01/03 01:53:41;;;;;;;;;7.00;2.25;;;;;16.62;69.55;101571.75;5061636;28;61776;-75
2022/01/03 01:56:14;;;;;;;;;2.75;2.00;;;;;16.53;69.68;101562.66;5076376;28;64013;-76
2022/01/03 01:58:52;;;;;;;;;4.50;1.75;;;;;16.57;69.84;101566.31;5061299;28;61785;-76
2022/01/03 02:01:20;;;;;;;;;3.25;1.00;;;;;16.56;69.78;101556.59;5061751;28;62045;-76
2022/01/03 02:04:09;;;;;;;;;3.50;2.00;;;;;16.51;69.98;101561.72;5061309;28;61968;-75
2022/01/03 02:06:45;;;;;;;;;7.00;3.00;;;;;16.52;69.96;101566.19;5061287;28;61795;-75
2022/01/03 02:09:25;;;;;;;;;6.25;2.75;;;;;16.54;69.63;101569.78;5064664;28;61743;-75
2022/01/03 02:11:56;;;;;;;;;2.25;2.00;;;;;16.47;69.93;101580.13;5064779;28;61905;-75
2022/01/03 02:14:23;;;;;;;;;1.00;1.00;;;;;16.72;69.41;101577.41;5065252;28;61769;-76
2022/01/03 02:16:50;;;;;;;;;4.25;0.25;;;;;16.77;68.97;101575.81;5064007;28;61723;-76
2022/01/03 02:19:15;;;;;;;;;7.75;2.00;;;;;16.42;70.08;101579.06;5064498;28;61859;-75
2022/01/03 02:21:41;;;;;;;;;2.00;2.00;;;;;16.44;70.04;101570.31;5065162;28;61828;-75
2022/01/03 02:24:07;;;;;;;;;4.25;2.75;;;;;16.41;70.03;101569.31;5080373;28;61805;-75
2022/01/03 02:26:33;;;;;;;;;6.00;2.00;;;;;16.33;70.31;101571.72;5062550;28;63669;-76
2022/01/03 02:28:58;;;;;;;;;1.25;0.25;;;;;16.30;70.42;101569.88;5064544;28;62154;-76
2022/01/03 02:31:24;;;;;;;;;9.00;1.00;;;;;16.37;69.98;101573.63;5080061;28;61953;-75
2022/01/03 02:33:51;;;;;;;;;4.00;2.00;;;;;16.38;70.08;101579.81;5064380;28;61688;-75
2022/01/03 02:36:18;;;;;;;;;2.75;2.00;;;;;16.41;70.10;101585.22;5064116;28;62889;-75
2022/01/03 02:38:44;;;;;;;;;6.25;2.75;;;;;16.36;69.88;101585.94;5062715;28;62158;-75
2022/01/03 02:41:09;;;;;;;;;7.25;2.00;;;;;16.43;69.87;101588.81;5064554;28;61736;-75
2022/01/03 02:43:35;;;;;;;;;3.00;1.50;;;;;16.42;69.75;101584.38;5064367;28;61890;-76
2022/01/03 02:46:01;;;;;;;;;3.75;3.75;;;;;16.48;69.72;101568.69;5063891;28;62776;-75
2022/01/03 02:48:26;;;;;;;;;2.75;1.00;;;;;16.44;69.70;101556.19;5062930;28;61779;-75
2022/01/03 02:50:52;;;;;;;;;2.50;2.00;;;;;16.42;69.91;101571.13;5064767;28;62244;-75
2022/01/03 02:53:19;;;;;;;;;6.25;3.50;;;;;16.49;69.90;101586.38;5064497;28;61771;-75
2022/01/03 02:55:44;;;;;;;;;6.00;1.25;;;;;16.42;69.97;101579.97;5063301;28;62201;-76
2022/01/03 02:58:10;;;;;;;;;7.00;1.50;;;;;16.43;70.15;101579.13;5062871;28;62697;-75
2022/01/03 03:00:48;;;;;;;;;4.25;3.00;;;;;16.49;70.11;101581.97;5063088;28;62094;-75
2022/01/03 03:03:20;;;;;;;;;3.00;3.00;;;;;16.52;70.05;101574.13;5064373;28;61869;-75
2022/01/03 03:05:46;;;;;;;;;7.75;2.00;;;;;16.55;69.88;101565.38;5063843;28;62820;-75
2022/01/03 03:08:12;;;;;;;;;8.25;2.00;;;;;16.51;70.00;101555.50;5063942;28;61922;-75
2022/01/03 03:10:39;;;;;;;;;4.00;1.00;;;;;16.49;70.01;101550.16;5064090;28;61950;-75
2022/01/03 03:13:04;;;;;;;;;6.00;2.00;;;;;16.43;70.21;101546.41;5064297;28;61743;-75
2022/01/03 03:15:31;;;;;;;;;1.75;1.00;;;;;16.56;69.86;101535.38;5063649;28;62049;-75
2022/01/03 03:17:56;;;;;;;;;2.00;1.00;;;;;16.53;69.96;101537.91;5063080;28;61884;-75
2022/01/03 03:20:26;;;;;;;;;6.00;2.25;;;;;16.56;69.93;101538.94;5062294;28;61971;-75
2022/01/03 03:22:52;;;;;;;;;5.50;1.00;;;;;16.55;69.63;101539.75;5062957;28;61865;-75
2022/01/03 03:25:29;;;;;;;;;6.75;3.00;;;;;16.60;69.74;101544.31;5062717;28;62592;-75
2022/01/03 03:27:57;;;;;;;;;4.50;2.00;;;;;16.58;69.77;101538.94;5062554;28;61892;-75
2022/01/03 03:30:24;;;;;;;;;4.75;4.00;;;;;16.61;69.63;101535.53;5063951;28;61745;-75
2022/01/03 03:32:53;;;;;;;;;1.75;1.75;;;;;16.55;69.80;101544.16;5059160;28;61793;-75
2022/01/03 03:35:19;;;;;;;;;3.50;2.00;;;;;16.51;70.03;101540.50;5041463;28;65282;-75
2022/01/03 03:37:45;;;;;;;;;3.00;2.00;;;;;16.52;69.81;101541.44;5059066;28;61888;-75
2022/01/03 03:40:11;;;;;;;;;9.25;2.25;;;;;16.59;69.72;101539.88;5043129;28;62024;-75
2022/01/03 03:42:38;;;;;;;;;1.75;1.00;;;;;16.58;69.81;101536.28;5044078;28;61924;-76
2022/01/03 03:45:04;;;;;;;;;5.75;2.00;;;;;16.62;69.60;101532.91;5043147;28;61972;-75
2022/01/03 03:47:30;;;;;;;;;7.75;1.75;;;;;16.63;69.36;101531.16;5043098;28;61826;-75
2022/01/03 03:49:56;;;;;;;;;3.00;1.00;;;;;16.67;69.41;101528.66;5043653;28;61923;-75
2022/01/03 03:52:21;;;;;;;;;4.50;2.00;;;;;16.62;69.19;101524.06;5043631;28;61730;-75
2022/01/03 03:54:47;;;;;;;;;6.25;2.25;;;;;16.53;69.19;101522.91;5058195;28;64934;-75
2022/01/03 03:57:12;;;;;;;;;4.75;1.50;;;;;16.62;69.11;101517.00;5058606;28;61888;-75
2022/01/03 03:59:38;;;;;;;;;2.50;2.00;;;;;16.72;68.83;101521.75;5043317;28;61910;-75
2022/01/03 04:02:05;;;;;;;;;2.25;1.00;;;;;16.70;68.97;101511.94;5043512;28;61738;-75
2022/01/03 04:04:31;;;;;;;;;5.50;1.75;;;;;16.71;69.06;101511.06;5042803;28;61840;-75
2022/01/03 04:06:57;;;;;;;;;2.25;1.00;;;;;16.68;68.87;101506.59;5043356;28;62650;-75
2022/01/03 04:09:22;;;;;;;;;3.50;1.75;;;;;16.65;68.83;101510.91;5043000;28;61800;-75
2022/01/03 04:11:48;;;;;;;;;2.25;0.00;;;;;16.71;68.99;101516.38;5058850;28;61820;-75
2022/01/03 04:14:13;;;;;;;;;4.00;1.75;;;;;16.66;69.10;101513.59;5042826;28;62890;-75
2022/01/03 04:16:39;;;;;;;;;4.25;1.00;;;;;16.68;68.80;101501.28;5041518;28;61833;-75
2022/01/03 04:19:05;;;;;;;;;2.50;1.25;;;;;16.67;68.81;101503.91;5043144;28;61838;-75
2022/01/03 04:21:31;;;;;;;;;3.00;0.75;;;;;16.67;68.96;101498.59;5042993;28;61768;-75
2022/01/03 04:23:57;;;;;;;;;3.00;1.00;;;;;16.61;69.18;101488.69;5041059;28;64853;-75
2022/01/03 04:26:23;;;;;;;;;10.50;1.00;;;;;16.55;69.00;101476.16;5042413;28;62111;-75
2022/01/03 04:28:48;;;;;;;;;5.25;1.00;;;;;16.61;68.84;101483.41;5042935;28;62127;-75
2022/01/03 04:31:14;;;;;;;;;5.50;2.25;;;;;16.61;69.02;101491.34;5042545;28;61762;-75
2022/01/03 04:33:40;;;;;;;;;3.00;2.75;;;;;16.58;68.99;101483.28;5071925;28;63699;-75
2022/01/03 04:36:07;;;;;;;;;5.50;1.00;;;;;16.67;68.95;101477.41;5078543;28;61972;-75
2022/01/03 04:38:33;;;;;;;;;5.00;3.25;;;;;16.67;68.54;101477.41;5062624;28;61960;-75
2022/01/03 04:40:59;;;;;;;;;2.75;1.50;;;;;16.63;68.73;101475.50;5078531;28;61961;-75
2022/01/03 04:43:25;;;;;;;;;2.00;1.00;;;;;16.64;68.94;101477.28;5062321;28;61726;-75
2022/01/03 04:45:51;;;;;;;;;6.75;1.50;;;;;16.65;68.85;101482.66;5060991;28;62170;-75
2022/01/03 04:48:17;;;;;;;;;4.50;1.00;;;;;16.65;68.81;101473.81;5062789;28;61765;-75
2022/01/03 04:50:43;;;;;;;;;1.75;1.75;;;;;16.66;68.75;101475.59;5062764;28;61842;-75
2022/01/03 04:53:08;;;;;;;;;6.00;2.25;;;;;16.51;68.82;101468.06;5062102;28;61814;-75
2022/01/03 04:55:34;;;;;;;;;6.75;2.00;;;;;16.59;68.91;101471.84;5077573;28;61969;-75
2022/01/03 04:57:59;;;;;;;;;5.25;2.00;;;;;16.62;68.92;101479.88;5061221;28;61832;-75
2022/01/03 05:00:25;;;;;;;;;2.50;1.25;;;;;16.62;68.87;101469.28;5062378;28;61798;-75
2022/01/03 05:02:50;;;;;;;;;7.00;3.00;;;;;16.58;69.10;101472.69;5060374;28;63631;-75
2022/01/03 05:05:16;;;;;;;;;3.50;1.25;;;;;16.61;69.02;101469.25;5078147;28;61884;-75
2022/01/03 05:07:41;;;;;;;;;10.25;3.00;;;;;16.61;69.01;101472.78;5062442;28;61988;-75
2022/01/03 05:10:07;;;;;;;;;4.50;1.00;;;;;16.64;68.99;101459.63;5062524;28;61795;-75
2022/01/03 05:12:33;;;;;;;;;1.00;1.00;;;;;16.64;68.59;101453.44;5061842;28;61827;-75
2022/01/03 05:14:58;;;;;;;;;2.75;1.75;;;;;16.67;68.95;101464.16;5062212;28;61967;-75
2022/01/03 05:17:23;;;;;;;;;6.25;2.00;;;;;16.64;68.93;101458.72;5061266;27;61971;-75
2022/01/03 05:19:49;;;;;;;;;4.50;2.25;;;;;16.61;68.94;101463.97;5062269;28;61769;-75
2022/01/03 05:22:14;;;;;;;;;1.75;1.00;;;;;16.63;68.65;101459.59;5061954;28;62826;-75
2022/01/03 05:24:40;;;;;;;;;7.00;2.00;;;;;16.63;68.87;101462.25;5061981;28;61826;-75
2022/01/03 05:27:05;;;;;;;;;5.50;1.75;;;;;16.67;68.78;101465.03;5062203;28;61903;-76
2022/01/03 05:29:32;;;;;;;;;2.75;2.25;;;;;16.67;68.69;101474.75;5077865;28;61660;-74
2022/01/03 05:31:57;;;;;;;;;5.25;1.00;;;;;16.68;68.89;101464.16;5059605;28;63671;-75
2022/01/03 05:34:23;;;;;;;;;3.50;2.50;;;;;16.69;68.83;101470.41;5059286;28;61944;-75
2022/01/03 05:36:48;;;;;;;;;5.00;1.75;;;;;16.69;68.75;101462.44;5062137;28;61827;-75
2022/01/03 05:39:14;;;;;;;;;2.75;1.25;;;;;16.67;68.70;101465.03;5077601;28;61757;-75
2022/01/03 05:41:41;;;;;;;;;2.50;1.00;;;;;16.71;68.96;101480.19;5062058;28;62050;-75
2022/01/03 05:44:07;;;;;;;;;5.25;1.00;;;;;16.73;68.85;101473.19;5080929;28;61972;-75
2022/01/03 05:46:32;;;;;;;;;5.00;1.00;;;;;16.74;68.85;101468.78;5081336;27;61869;-75
2022/01/03 05:48:58;;;;;;;;;3.50;1.00;;;;;16.76;68.87;101472.38;5065421;28;61788;-75
2022/01/03 05:51:23;;;;;;;;;4.50;2.00;;;;;16.73;68.83;101461.66;5079861;28;64005;-75
2022/01/03 05:53:53;;;;;;;;;2.50;1.00;;;;;16.71;69.00;101451.03;5064945;28;62044;-75
2022/01/03 05:56:24;;;;;;;;;5.50;1.00;;;;;16.72;69.20;101465.16;5080826;27;61927;-74
2022/01/03 05:58:50;;;;;;;;;2.25;2.00;;;;;16.70;69.28;101464.22;5081278;27;61873;-75
2022/01/03 06:01:15;;;;;;;;;6.25;1.75;;;;;16.68;69.04;101458.88;5064623;28;61848;-75
2022/01/03 06:03:41;;;;;;;;;2.50;1.25;;;;;16.69;69.14;101463.34;5065438;28;62001;-75
2022/01/03 06:08:36;;;;;;;;;4.75;1.75;;;;;16.68;69.32;101455.31;5065574;28;61930;-75
2022/01/03 06:11:03;;;;;;;;;3.75;1.50;;;;;16.69;69.30;101455.38;5064143;28;61997;-78
2022/01/03 06:13:28;;;;;;;;;4.00;1.00;;;;;16.71;69.30;101458.97;5081046;28;61803;-77
2022/01/03 06:15:54;;;;;;;;;1.75;1.00;;;;;16.69;69.29;101468.63;5065159;28;62127;-75
2022/01/03 06:18:20;;;;;;;;;1.25;1.25;;;;;16.67;69.32;101464.16;5065518;28;61870;-76
2022/01/03 06:20:47;;;;;;;;;6.50;1.75;;;;;16.66;69.39;101457.91;5064534;28;61796;-76
2022/01/03 06:23:16;;;;;;;;;5.75;1.25;;;;;16.71;69.56;101461.63;5065016;28;62101;-76
2022/01/03 06:25:42;;;;;;;;;2.00;2.00;;;;;16.68;69.50;101456.22;5064620;28;61900;-76
2022/01/03 06:28:08;;;;;;;;;5.00;1.50;;;;;16.69;69.49;101452.72;5064962;28;61774;-76
2022/01/03 06:30:35;;;;;;;;;6.75;1.50;;;;;16.67;69.31;101449.13;5056951;28;62498;-77
2022/01/03 06:33:01;;;;;;;;;3.75;2.75;;;;;16.66;69.63;101455.28;5063577;28;61750;-77
2022/01/03 06:35:26;;;;;;;;;6.75;2.00;;;;;16.67;69.64;101453.53;5060021;28;61702;-74
2022/01/03 06:37:52;;;;;;;;;3.75;3.00;;;;;16.62;69.57;101445.44;5064144;28;61717;-78
2022/01/03 06:40:17;;;;;;;;;3.25;1.50;;;;;16.58;69.77;101437.34;5058728;28;62017;-75
2022/01/03 06:42:44;;;;;;;;;7.00;2.00;;;;;16.59;69.78;101432.09;5044500;28;61980;-75
2022/01/03 06:45:09;;;;;;;;;1.00;1.00;;;;;16.61;70.13;101429.50;5044135;28;62082;-74
2022/01/03 06:47:35;;;;;;;;;8.75;2.00;;;;;16.57;69.88;101436.44;5042943;28;61809;-76
2022/01/03 06:50:01;;;;;;;;;2.00;2.00;;;;;16.58;69.97;101440.88;5045352;28;62805;-81
2022/01/03 06:52:26;;;;;;;;;5.00;3.00;;;;;16.63;69.79;101434.00;5056278;28;61824;-76
2022/01/03 06:54:52;;;;;;;;;2.00;2.00;;;;;16.63;69.89;101441.03;5074802;27;61866;-76
2022/01/03 06:57:17;;;;;;;;;7.25;2.00;;;;;16.55;69.95;101428.44;5060511;28;61939;-76
2022/01/03 06:59:43;;;;;;;;;6.50;2.00;;;;;16.61;69.72;101430.38;5078446;28;64069;-76
2022/01/03 07:02:09;;;;;;;;;4.00;1.50;;;;;16.61;70.01;101437.44;5063641;28;61987;-76
2022/01/03 07:04:35;;;;;;;;;3.50;2.00;;;;;16.60;69.91;101432.97;5079306;28;61943;-76
2022/01/03 07:07:00;;;;;;;;;5.50;1.25;;;;;16.55;69.92;101417.84;5064231;28;62279;-77
2022/01/03 07:09:26;;;;;;;;;7.75;3.00;;;;;16.50;70.29;101422.13;5062548;28;61770;-75
2022/01/03 07:11:51;;;;;;;;;5.50;2.25;;;;;16.56;70.17;101434.66;5062696;28;61872;-75
2022/01/03 07:19:41;;;;;;;;;5.50;2.75;;;;;16.58;70.05;101419.69;5063095;28;61946;-75
2022/01/03 07:22:09;;;;;;;;;1.25;1.00;;;;;16.57;70.41;101420.53;5062460;28;61952;-75
2022/01/03 07:24:36;;;;;;;;;2.50;2.00;;;;;16.58;70.10;101411.72;5063435;28;61752;-76
2022/01/03 07:27:03;;;;;;;;;7.25;2.00;;;;;16.57;70.35;101420.53;5078828;28;61721;-76
2022/01/03 07:29:29;;;;;;;;;1.00;1.00;;;;;16.56;70.21;101416.13;5042758;28;62769;-76
2022/01/03 07:31:54;;;;;;;;;7.50;6.00;;;;;16.50;70.47;101414.16;5052365;28;62250;-75
2022/01/03 07:34:20;;;;;;;;;5.50;2.50;;;;;16.51;70.49;101404.44;5078651;28;62186;-76
2022/01/03 07:36:46;;;;;;;;;4.00;2.00;;;;;16.51;70.49;101408.00;5063881;28;61965;-75
2022/01/03 07:39:11;;;;;;;;;2.00;2.00;;;;;16.50;70.75;101400.91;5061096;28;63679;-75
2022/01/03 07:41:37;;;;;;;;;3.75;2.00;;;;;16.45;70.89;101399.88;5062489;28;61899;-75
2022/01/03 07:44:02;;;;;;;;;4.00;2.00;;;;;16.48;70.73;101399.97;5062551;28;61824;-75
2022/01/03 07:46:28;;;;;;;;;8.00;2.25;;;;;16.53;70.81;101403.63;5063093;28;61742;-75
2022/01/03 07:48:53;;;;;;;;;7.25;1.75;;;;;16.42;70.82;101404.19;5062366;28;61697;-75
2022/01/03 07:51:19;;;;;;;;;2.00;2.00;;;;;16.51;70.77;101396.50;5062713;28;61872;-75
2022/01/03 07:53:44;;;;;;;;;2.00;1.00;;;;;16.50;70.79;101395.63;5062810;28;61747;-75
2022/01/03 07:56:10;;;;;;;;;2.00;2.00;;;;;16.47;70.68;101400.81;5062712;28;61775;-75
2022/01/03 07:58:36;;;;;;;;;2.00;0.75;;;;;16.52;70.66;101404.50;5061855;28;61935;-75
2022/01/03 08:01:03;;;;;;;;;5.25;2.50;;;;;16.55;70.77;101406.34;5062634;28;61745;-75
2022/01/03 08:03:28;;;;;;;;;6.50;3.50;;;;;16.58;70.54;101389.63;5062752;28;61807;-75
2022/01/03 08:05:54;;;;;;;;;5.00;2.00;;;;;16.55;70.44;101382.50;5062923;28;61787;-75
2022/01/03 08:08:19;;;;;;;;;5.75;2.75;;;;;16.60;70.47;101379.97;5061373;28;63797;-75
2022/01/03 08:10:46;;;;;;;;;4.25;3.50;;;;;16.60;70.65;101383.50;5062910;28;61724;-75
2022/01/03 08:13:13;;;;;;;;;6.75;1.75;;;;;16.59;70.54;101375.53;5063540;28;61982;-75
2022/01/03 08:15:38;;;;;;;;;1.75;1.00;;;;;16.55;70.69;101374.53;5061769;28;62170;-75
2022/01/03 08:18:04;;;;;;;;;3.50;2.50;;;;;16.54;70.56;101373.66;5061102;28;64820;-75
2022/01/03 08:20:29;;;;;;;;;3.25;1.25;;;;;16.58;70.63;101393.16;5063026;28;61915;-75
2022/01/03 08:22:55;;;;;;;;;5.50;2.50;;;;;16.60;70.68;101391.47;5078482;28;61903;-75
2022/01/03 08:25:20;;;;;;;;;3.50;3.00;;;;;16.63;70.66;101386.28;5061414;28;61954;-75
2022/01/03 08:27:47;;;;;;;;;8.75;2.00;;;;;16.63;70.52;101374.78;5062086;28;61765;-75
2022/01/03 08:30:12;;;;;;;;;7.00;1.25;;;;;16.56;70.69;101361.34;5063057;28;61773;-75
2022/01/03 08:32:38;;;;;;;;;2.25;1.00;;;;;16.64;70.78;101358.00;5062543;28;61720;-75
2022/01/03 08:35:04;;;;;;;;;5.25;2.50;;;;;16.61;71.08;101361.47;5062989;28;61860;-75
2022/01/03 08:37:30;;;;;;;;;0.50;0.50;;;;;16.65;70.93;101366.00;5061787;28;62779;-76
2022/01/03 08:39:58;;;;;;;;;10.25;4.50;;;;;16.67;70.75;101368.72;5062341;28;61952;-75
2022/01/03 08:42:24;;;;;;;;;5.50;1.00;;;;;16.66;70.77;101354.53;5061418;28;61888;-75
2022/01/03 08:44:50;;;;;;;;;12.75;2.50;;;;;16.67;71.04;101356.34;5062705;28;62094;-75
2022/01/03 08:47:15;;;;;;;;;6.50;3.25;;;;;16.68;71.10;101350.19;5060458;28;64979;-75
2022/01/03 08:49:40;;;;;;;;;8.25;2.25;;;;;16.69;70.95;101353.75;5062529;28;61770;-76
2022/01/03 08:52:06;;;;;;;;;3.50;3.25;;;;;16.49;71.27;101343.44;5062385;28;62412;-75
2022/01/03 08:54:32;;;;;;;;;6.00;2.25;;;;;16.50;71.41;101332.00;5062586;28;61920;-75
2022/01/03 08:56:57;;;;;;;;;12.25;3.25;;;;;16.54;71.42;101336.56;5060144;28;63833;-76
2022/01/03 08:59:23;;;;;;;;;6.50;4.25;;;;;16.56;71.23;101342.78;5062439;28;62054;-75
2022/01/03 09:01:48;;;;;;;;;7.00;5.00;;;;;16.64;71.15;101337.69;5062396;28;61878;-75
2022/01/03 09:04:14;;;;;;;;;3.50;2.00;;;;;16.55;71.39;101348.94;5062670;28;62088;-75
2022/01/03 09:06:40;;;;;;;;;8.25;2.00;;;;;16.57;71.50;101356.94;5061347;28;61807;-75
2022/01/03 09:09:06;;;;;;;;;9.75;1.75;;;;;16.65;71.45;101355.41;5062614;28;61751;-75
2022/01/03 09:11:32;;;;;;;;;6.75;1.25;;;;;16.68;71.19;101354.59;5062544;28;62248;-75
2022/01/03 09:13:57;;;;;;;;;5.00;2.00;;;;;16.68;71.37;101354.59;5062365;28;61725;-75
2022/01/03 09:16:23;;;;;;;;;7.00;2.00;;;;;16.72;71.36;101361.78;5060603;28;61956;-74
2022/01/03 09:18:48;;;;;;;;;1.75;1.50;;;;;16.75;71.60;101353.91;5062066;28;62053;-74
2022/01/03 09:21:14;;;;;;;;;4.25;3.00;;;;;16.76;71.31;101350.41;5060639;28;62007;-78
2022/01/03 09:23:45;;;;;;;;;14.00;3.00;;;;;16.80;71.11;101362.94;5062358;28;61939;-75
2022/01/03 09:28:57;;;;;;;;;4.00;1.25;;;;;16.94;70.84;101348.28;5061962;28;61719;-74
2022/01/03 09:31:32;;;;;;;;;1.25;1.00;;;;;16.94;71.02;101353.59;5062332;28;61833;-75
2022/01/03 09:33:59;;;;;;;;;11.75;4.25;;;;;16.92;70.99;101350.03;5046587;28;61937;-77
2022/01/03 09:36:26;;;;;;;;;3.75;3.00;;;;;16.94;71.11;101344.75;5041464;28;61997;-74
2022/01/03 09:38:52;;;;;;;;;5.75;2.00;;;;;16.91;71.03;101342.03;5041364;28;62148;-75
2022/01/03 09:41:21;;;;;;;;;5.50;1.75;;;;;17.00;71.00;101333.41;5040357;28;61879;-75
2022/01/03 09:43:57;;;;;;;;;1.75;1.00;;;;;16.99;70.93;101351.09;5040694;28;62133;-75
2022/01/03 09:46:31;;;;;;;;;6.50;2.25;;;;;17.02;70.83;101358.22;5040108;28;63721;-77
2022/01/03 09:48:57;;;;;;;;;3.00;2.00;;;;;17.09;70.91;101355.75;5039877;28;61822;-75
2022/01/03 09:51:27;;;;;;;;;3.25;2.00;;;;;17.03;70.81;101352.97;5040194;28;61858;-76
2022/01/03 09:53:54;;;;;;;;;3.25;1.00;;;;;17.10;70.81;101357.56;5041775;28;61620;-75
2022/01/03 09:56:20;;;;;;;;;7.00;2.00;;;;;17.12;70.59;101352.31;5040873;28;62794;-75
2022/01/03 09:58:46;;;;;;;;;2.25;1.00;;;;;17.16;70.84;101356.84;5041234;28;61763;-75
2022/01/03 10:01:12;;;;;;;;;1.75;1.75;;;;;17.10;70.68;101351.38;5041664;28;61825;-74
2022/01/03 10:03:38;;;;;;;;;7.25;3.00;;;;;17.10;70.75;101354.03;5041427;28;61917;-75
2022/01/03 10:06:04;;;;;;;;;2.00;1.00;;;;;17.21;70.63;101347.25;5040798;28;61781;-75
2022/01/03 10:08:29;;;;;;;;;3.50;2.25;;;;;17.23;70.28;101342.88;5041428;28;61892;-75
2022/01/03 10:10:55;;;;;;;;;5.75;1.50;;;;;17.25;70.34;101345.59;5040669;28;61799;-74
2022/01/03 10:13:20;;;;;;;;;4.00;2.00;;;;;17.28;70.34;101338.56;5041295;28;61903;-74
2022/01/03 10:15:47;;;;;;;;;8.00;1.25;;;;;17.24;70.04;101352.63;5040906;28;61839;-75
2022/01/03 10:18:17;;;;;;;;;3.00;3.00;;;;;17.29;70.35;101342.16;5040783;28;62156;-74
2022/01/03 10:20:42;;;;;;;;;6.75;5.75;;;;;17.29;69.86;101337.75;5039853;28;61794;-75
2022/01/03 10:23:11;;;;;;;;;10.25;4.75;;;;;17.30;69.92;101335.97;5041460;28;62216;-75
2022/01/03 10:25:36;;;;;;;;;7.50;4.25;;;;;17.27;69.98;101326.19;5040557;28;62831;-75
2022/01/03 10:28:04;;;;;;;;;8.25;6.00;;;;;17.25;70.00;101327.00;5042239;28;61749;-75
2022/01/03 10:30:43;;;;;;;;;10.75;7.00;;;;;17.26;70.03;101327.03;5044748;28;62319;-75
2022/01/03 10:33:21;;;;;;;;;7.75;6.50;;;;;17.28;69.96;101319.13;5054816;28;61791;-75
2022/01/03 10:35:50;;;;;;;;;9.25;3.00;;;;;17.34;69.57;101313.97;5064493;28;61944;-74
2022/01/03 10:38:36;;;;;;;;;9.75;8.00;;;;;17.32;69.98;101315.69;5063147;28;62169;-74
2022/01/03 10:41:17;;;;;;;;;6.75;3.00;;;;;17.30;69.87;101320.94;5080141;28;61925;-75
2022/01/03 10:43:45;;;;;;;;;3.75;2.00;;;;;17.29;69.70;101310.31;5064933;28;61804;-74
2022/01/03 10:46:28;;;;;;;;;8.75;3.00;;;;;17.28;69.55;101309.38;5063602;28;61782;-74
2022/01/03 10:49:16;;;;;;;;;2.00;2.00;;;;;17.31;69.57;101292.63;5063322;28;61813;-75
2022/01/03 10:51:42;;;;;;;;;9.50;4.75;;;;;17.36;69.65;101301.63;5064875;28;62084;-75
2022/01/03 10:54:13;;;;;;;;;4.75;4.75;;;;;17.35;69.44;101281.25;5080175;27;62076;-74
2022/01/03 10:56:41;;;;;;;;;5.50;5.00;;;;;17.33;69.20;101286.53;5079026;28;64803;-74
2022/01/03 10:59:15;;;;;;;;;3.50;2.50;;;;;17.38;69.18;101286.66;5064272;28;61969;-74
2022/01/03 11:01:43;;;;;;;;;4.25;3.00;;;;;17.38;69.23;101281.34;5064271;28;61765;-75
2022/01/03 11:04:13;;;;;;;;;3.25;3.00;;;;;17.36;69.25;101272.44;5064201;28;61754;-75
2022/01/03 11:11:55;;;;;;;;;6.00;1.75;;;;;17.56;68.83;101259.63;5064359;28;61820;-75
2022/01/03 11:14:42;;;;;;;;;3.00;3.00;;;;;17.56;69.03;101263.19;5079987;28;62248;-75
2022/01/03 11:17:28;;;;;;;;;5.00;2.00;;;;;17.55;68.87;101257.88;5063508;28;62187;-75
2022/01/03 11:19:58;;;;;;;;;6.25;4.00;;;;;17.56;68.64;101260.53;5064084;28;61929;-75
2022/01/03 11:22:38;;;;;;;;;4.25;4.25;;;;;17.62;68.66;101243.84;5079772;27;62031;-75
2022/01/03 11:25:05;;;;;;;;;6.00;6.00;;;;;17.60;68.44;101242.94;5064398;28;61986;-75
2022/01/03 11:27:31;;;;;;;;;6.25;6.25;;;;;17.68;68.42;101246.66;5063509;28;61727;-75
2022/01/03 11:29:57;;;;;;;;;2.00;2.00;;;;;17.67;68.33;101236.00;5079154;28;61913;-75
2022/01/03 11:32:23;;;;;;;;;2.75;2.25;;;;;17.71;68.61;101233.44;5063746;28;61778;-75
2022/01/03 11:34:51;;;;;;;;;4.25;3.75;;;;;17.65;68.43;101222.72;5062727;28;61852;-75
2022/01/03 11:37:16;;;;;;;;;7.75;6.00;;;;;17.75;68.36;101216.72;5063063;28;62049;-75
2022/01/03 11:39:46;;;;;;;;;9.50;6.75;;;;;17.74;68.47;101225.56;5062562;28;61649;-76
2022/01/03 11:42:12;;;;;;;;;7.25;7.25;;;;;17.79;68.42;101212.38;5063568;28;62296;-75
2022/01/03 11:44:40;;;;;;;;;9.25;3.00;;;;;17.88;68.49;101217.91;5062278;28;62241;-75